sensor_id;sensor_type;location;lat;lon;timestamp;P1;durP1;ratioP1;P2;durP2;ratioP2
1436;SDS011;712;51.026;13.792;2023-02-26T00:01:51;3.55;;;1.17;;
1436;SDS011;712;51.026;13.792;2023-02-26T00:04:16;3.70;;;1.40;;
1436;SDS011;712;51.026;13.792;2023-02-26T00:06:41;3.97;;;1.40;;
1436;SDS011;712;51.026;13.792;2023-02-26T00:09:16;3.90;;;1.27;;
1436;SDS011;712;51.026;13.792;2023-02-26T00:11:41;4.87;;;1.60;;
1436;SDS011;712;51.026;13.792;2023-02-26T00:14:07;3.87;;;1.50;;
1436;SDS011;712;51.026;13.792;2023-02-26T00:18:59;5.35;;;1.40;;
1436;SDS011;712;51.026;13.792;2023-02-26T00:21:26;4.38;;;1.60;;
1436;SDS011;712;51.026;13.792;2023-02-26T00:23:51;4.15;;;1.30;;
1436;SDS011;712;51.026;13.792;2023-02-26T00:26:17;3.83;;;1.50;;
1436;SDS011;712;51.026;13.792;2023-02-26T00:28:42;4.93;;;1.80;;
1436;SDS011;712;51.026;13.792;2023-02-26T00:31:08;4.05;;;1.55;;
1436;SDS011;712;51.026;13.792;2023-02-26T00:33:33;6.25;;;2.10;;
1436;SDS011;712;51.026;13.792;2023-02-26T00:36:18;6.22;;;1.60;;
1436;SDS011;712;51.026;13.792;2023-02-26T00:38:44;4.82;;;1.63;;
1436;SDS011;712;51.026;13.792;2023-02-26T00:41:12;4.30;;;1.40;;
1436;SDS011;712;51.026;13.792;2023-02-26T00:43:39;4.50;;;1.77;;
1436;SDS011;712;51.026;13.792;2023-02-26T00:46:14;3.70;;;1.37;;
1436;SDS011;712;51.026;13.792;2023-02-26T00:51:25;4.15;;;1.50;;
1436;SDS011;712;51.026;13.792;2023-02-26T00:53:56;6.03;;;1.60;;
1436;SDS011;712;51.026;13.792;2023-02-26T00:56:23;3.40;;;1.35;;
1436;SDS011;712;51.026;13.792;2023-02-26T00:58:48;5.63;;;1.65;;
1436;SDS011;712;51.026;13.792;2023-02-26T01:01:13;4.65;;;1.40;;
1436;SDS011;712;51.026;13.792;2023-02-26T01:03:38;4.03;;;1.45;;
1436;SDS011;712;51.026;13.792;2023-02-26T01:06:04;4.32;;;1.10;;
1436;SDS011;712;51.026;13.792;2023-02-26T01:08:36;5.38;;;1.60;;
1436;SDS011;712;51.026;13.792;2023-02-26T01:11:02;4.15;;;1.27;;
1436;SDS011;712;51.026;13.792;2023-02-26T01:13:27;4.38;;;1.38;;
1436;SDS011;712;51.026;13.792;2023-02-26T01:15:54;4.53;;;1.40;;
1436;SDS011;712;51.026;13.792;2023-02-26T01:18:27;4.45;;;1.35;;
1436;SDS011;712;51.026;13.792;2023-02-26T01:20:55;4.07;;;1.17;;
1436;SDS011;712;51.026;13.792;2023-02-26T01:23:22;3.45;;;1.10;;
1436;SDS011;712;51.026;13.792;2023-02-26T01:25:58;4.47;;;1.60;;
1436;SDS011;712;51.026;13.792;2023-02-26T01:28:24;3.90;;;1.30;;
1436;SDS011;712;51.026;13.792;2023-02-26T01:30:50;4.13;;;1.20;;
1436;SDS011;712;51.026;13.792;2023-02-26T01:35:46;3.88;;;1.30;;
1436;SDS011;712;51.026;13.792;2023-02-26T01:38:23;3.05;;;1.30;;
1436;SDS011;712;51.026;13.792;2023-02-26T01:41:00;4.07;;;1.30;;
1436;SDS011;712;51.026;13.792;2023-02-26T01:43:27;4.18;;;1.55;;
1436;SDS011;712;51.026;13.792;2023-02-26T01:46:14;4.78;;;1.40;;
1436;SDS011;712;51.026;13.792;2023-02-26T01:51:15;4.65;;;1.50;;
1436;SDS011;712;51.026;13.792;2023-02-26T01:53:41;4.65;;;1.52;;
1436;SDS011;712;51.026;13.792;2023-02-26T01:56:14;5.00;;;1.60;;
1436;SDS011;712;51.026;13.792;2023-02-26T01:58:41;4.18;;;1.65;;
1436;SDS011;712;51.026;13.792;2023-02-26T02:01:06;4.68;;;1.67;;
1436;SDS011;712;51.026;13.792;2023-02-26T02:03:33;5.55;;;1.58;;
1436;SDS011;712;51.026;13.792;2023-02-26T02:06:09;5.20;;;1.70;;
1436;SDS011;712;51.026;13.792;2023-02-26T02:08:36;4.20;;;1.60;;
1436;SDS011;712;51.026;13.792;2023-02-26T02:11:02;3.60;;;1.58;;
1436;SDS011;712;51.026;13.792;2023-02-26T02:18:59;4.75;;;2.05;;
1436;SDS011;712;51.026;13.792;2023-02-26T02:21:53;4.68;;;2.00;;
1436;SDS011;712;51.026;13.792;2023-02-26T02:26:48;4.93;;;1.65;;
1436;SDS011;712;51.026;13.792;2023-02-26T02:29:25;4.55;;;1.90;;
1436;SDS011;712;51.026;13.792;2023-02-26T02:31:56;4.47;;;1.75;;
1436;SDS011;712;51.026;13.792;2023-02-26T02:34:24;5.35;;;2.00;;
1436;SDS011;712;51.026;13.792;2023-02-26T02:36:54;5.47;;;2.20;;
1436;SDS011;712;51.026;13.792;2023-02-26T02:39:22;4.70;;;2.00;;
1436;SDS011;712;51.026;13.792;2023-02-26T02:41:49;5.90;;;2.10;;
1436;SDS011;712;51.026;13.792;2023-02-26T02:44:17;4.40;;;1.92;;
1436;SDS011;712;51.026;13.792;2023-02-26T02:46:43;5.43;;;2.05;;
1436;SDS011;712;51.026;13.792;2023-02-26T02:49:17;4.47;;;1.98;;
1436;SDS011;712;51.026;13.792;2023-02-26T02:51:53;6.43;;;2.25;;
1436;SDS011;712;51.026;13.792;2023-02-26T02:54:39;5.05;;;1.80;;
1436;SDS011;712;51.026;13.792;2023-02-26T02:59:53;5.50;;;2.38;;
1436;SDS011;712;51.026;13.792;2023-02-26T03:02:42;4.47;;;2.10;;
1436;SDS011;712;51.026;13.792;2023-02-26T03:05:10;4.93;;;2.00;;
1436;SDS011;712;51.026;13.792;2023-02-26T03:07:39;6.22;;;2.25;;
1436;SDS011;712;51.026;13.792;2023-02-26T03:10:07;6.60;;;2.00;;
1436;SDS011;712;51.026;13.792;2023-02-26T03:12:32;4.70;;;2.05;;
1436;SDS011;712;51.026;13.792;2023-02-26T03:14:58;6.63;;;2.40;;
1436;SDS011;712;51.026;13.792;2023-02-26T03:17:42;6.63;;;2.90;;
1436;SDS011;712;51.026;13.792;2023-02-26T03:20:21;4.88;;;2.03;;
1436;SDS011;712;51.026;13.792;2023-02-26T03:25:17;5.70;;;2.40;;
1436;SDS011;712;51.026;13.792;2023-02-26T03:32:55;6.22;;;2.25;;
1436;SDS011;712;51.026;13.792;2023-02-26T03:35:28;4.65;;;2.30;;
1436;SDS011;712;51.026;13.792;2023-02-26T03:37:58;5.82;;;2.70;;
1436;SDS011;712;51.026;13.792;2023-02-26T03:40:26;5.88;;;2.28;;
1436;SDS011;712;51.026;13.792;2023-02-26T03:42:56;4.93;;;2.20;;
1436;SDS011;712;51.026;13.792;2023-02-26T03:45:23;5.85;;;2.47;;
1436;SDS011;712;51.026;13.792;2023-02-26T03:47:51;4.72;;;2.10;;
1436;SDS011;712;51.026;13.792;2023-02-26T03:52:43;6.57;;;2.10;;
1436;SDS011;712;51.026;13.792;2023-02-26T03:55:14;6.05;;;2.25;;
1436;SDS011;712;51.026;13.792;2023-02-26T03:57:42;6.22;;;2.30;;
1436;SDS011;712;51.026;13.792;2023-02-26T04:00:08;4.60;;;2.00;;
1436;SDS011;712;51.026;13.792;2023-02-26T04:02:52;5.03;;;2.47;;
1436;SDS011;712;51.026;13.792;2023-02-26T04:05:20;4.45;;;2.00;;
1436;SDS011;712;51.026;13.792;2023-02-26T04:07:46;5.70;;;2.13;;
1436;SDS011;712;51.026;13.792;2023-02-26T04:10:16;4.93;;;2.03;;
1436;SDS011;712;51.026;13.792;2023-02-26T04:12:42;5.18;;;2.08;;
1436;SDS011;712;51.026;13.792;2023-02-26T04:15:07;7.43;;;2.10;;
1436;SDS011;712;51.026;13.792;2023-02-26T04:17:33;6.28;;;2.00;;
1436;SDS011;712;51.026;13.792;2023-02-26T04:19:58;5.27;;;2.33;;
1436;SDS011;712;51.026;13.792;2023-02-26T04:22:23;5.40;;;2.10;;
1436;SDS011;712;51.026;13.792;2023-02-26T04:24:48;4.93;;;2.20;;
1436;SDS011;712;51.026;13.792;2023-02-26T04:27:13;6.53;;;1.98;;
1436;SDS011;712;51.026;13.792;2023-02-26T04:29:38;5.07;;;2.00;;
1436;SDS011;712;51.026;13.792;2023-02-26T04:32:04;5.07;;;1.97;;
1436;SDS011;712;51.026;13.792;2023-02-26T04:34:29;5.37;;;1.87;;
1436;SDS011;712;51.026;13.792;2023-02-26T04:36:54;4.28;;;1.77;;
1436;SDS011;712;51.026;13.792;2023-02-26T04:39:19;4.30;;;1.53;;
1436;SDS011;712;51.026;13.792;2023-02-26T04:41:44;5.25;;;1.80;;
1436;SDS011;712;51.026;13.792;2023-02-26T04:44:09;7.00;;;1.60;;
1436;SDS011;712;51.026;13.792;2023-02-26T04:46:34;3.73;;;1.60;;
1436;SDS011;712;51.026;13.792;2023-02-26T04:49:00;5.57;;;1.50;;
1436;SDS011;712;51.026;13.792;2023-02-26T04:51:25;7.47;;;1.60;;
1436;SDS011;712;51.026;13.792;2023-02-26T04:53:50;8.37;;;1.70;;
1436;SDS011;712;51.026;13.792;2023-02-26T04:56:15;3.40;;;1.30;;
1436;SDS011;712;51.026;13.792;2023-02-26T04:58:40;4.30;;;1.30;;
1436;SDS011;712;51.026;13.792;2023-02-26T05:01:06;6.60;;;1.53;;
1436;SDS011;712;51.026;13.792;2023-02-26T05:03:31;4.65;;;1.40;;
1436;SDS011;712;51.026;13.792;2023-02-26T05:05:56;5.75;;;1.45;;
1436;SDS011;712;51.026;13.792;2023-02-26T05:08:21;5.47;;;1.37;;
1436;SDS011;712;51.026;13.792;2023-02-26T05:10:46;4.50;;;1.40;;
1436;SDS011;712;51.026;13.792;2023-02-26T05:13:11;5.70;;;1.40;;
1436;SDS011;712;51.026;13.792;2023-02-26T05:15:37;4.57;;;1.50;;
1436;SDS011;712;51.026;13.792;2023-02-26T05:18:02;5.70;;;1.40;;
1436;SDS011;712;51.026;13.792;2023-02-26T05:20:27;4.73;;;1.50;;
1436;SDS011;712;51.026;13.792;2023-02-26T05:22:52;3.90;;;1.65;;
1436;SDS011;712;51.026;13.792;2023-02-26T05:25:17;6.47;;;1.70;;
1436;SDS011;712;51.026;13.792;2023-02-26T05:27:42;4.30;;;1.47;;
1436;SDS011;712;51.026;13.792;2023-02-26T05:30:08;6.38;;;1.63;;
1436;SDS011;712;51.026;13.792;2023-02-26T05:32:34;5.30;;;1.70;;
1436;SDS011;712;51.026;13.792;2023-02-26T05:34:59;5.43;;;1.90;;
1436;SDS011;712;51.026;13.792;2023-02-26T05:37:24;6.40;;;1.57;;
1436;SDS011;712;51.026;13.792;2023-02-26T05:39:49;4.00;;;1.45;;
1436;SDS011;712;51.026;13.792;2023-02-26T05:42:14;4.28;;;1.42;;
1436;SDS011;712;51.026;13.792;2023-02-26T05:44:40;5.50;;;1.50;;
1436;SDS011;712;51.026;13.792;2023-02-26T05:47:05;5.17;;;1.90;;
1436;SDS011;712;51.026;13.792;2023-02-26T05:49:30;5.97;;;1.50;;
1436;SDS011;712;51.026;13.792;2023-02-26T05:51:55;5.83;;;1.60;;
1436;SDS011;712;51.026;13.792;2023-02-26T05:54:21;6.93;;;1.63;;
1436;SDS011;712;51.026;13.792;2023-02-26T05:56:46;5.70;;;1.60;;
1436;SDS011;712;51.026;13.792;2023-02-26T05:59:11;4.60;;;1.50;;
1436;SDS011;712;51.026;13.792;2023-02-26T06:01:36;6.20;;;1.77;;
1436;SDS011;712;51.026;13.792;2023-02-26T06:04:02;6.57;;;1.70;;
1436;SDS011;712;51.026;13.792;2023-02-26T06:06:28;4.45;;;1.58;;
1436;SDS011;712;51.026;13.792;2023-02-26T06:08:53;5.97;;;1.60;;
1436;SDS011;712;51.026;13.792;2023-02-26T06:11:18;4.60;;;1.70;;
1436;SDS011;712;51.026;13.792;2023-02-26T06:13:43;5.93;;;1.75;;
1436;SDS011;712;51.026;13.792;2023-02-26T06:16:08;7.57;;;1.90;;
1436;SDS011;712;51.026;13.792;2023-02-26T06:18:33;5.68;;;1.90;;
1436;SDS011;712;51.026;13.792;2023-02-26T06:20:59;6.75;;;2.00;;
1436;SDS011;712;51.026;13.792;2023-02-26T06:23:24;5.68;;;2.08;;
1436;SDS011;712;51.026;13.792;2023-02-26T06:25:50;7.07;;;2.27;;
1436;SDS011;712;51.026;13.792;2023-02-26T06:28:16;8.25;;;2.42;;
1436;SDS011;712;51.026;13.792;2023-02-26T06:30:41;6.13;;;1.90;;
1436;SDS011;712;51.026;13.792;2023-02-26T06:33:06;6.80;;;2.13;;
1436;SDS011;712;51.026;13.792;2023-02-26T06:35:31;5.87;;;2.07;;
1436;SDS011;712;51.026;13.792;2023-02-26T06:37:57;6.10;;;1.97;;
1436;SDS011;712;51.026;13.792;2023-02-26T06:40:22;8.07;;;2.10;;
1436;SDS011;712;51.026;13.792;2023-02-26T06:42:47;5.70;;;2.00;;
1436;SDS011;712;51.026;13.792;2023-02-26T06:45:12;6.55;;;2.33;;
1436;SDS011;712;51.026;13.792;2023-02-26T06:47:37;7.93;;;2.10;;
1436;SDS011;712;51.026;13.792;2023-02-26T06:50:03;6.30;;;2.05;;
1436;SDS011;712;51.026;13.792;2023-02-26T06:52:29;7.40;;;2.25;;
1436;SDS011;712;51.026;13.792;2023-02-26T06:54:54;6.65;;;1.90;;
1436;SDS011;712;51.026;13.792;2023-02-26T06:57:19;8.48;;;2.10;;
1436;SDS011;712;51.026;13.792;2023-02-26T06:59:44;6.13;;;2.13;;
1436;SDS011;712;51.026;13.792;2023-02-26T07:02:14;6.95;;;2.17;;
1436;SDS011;712;51.026;13.792;2023-02-26T07:04:40;6.95;;;2.03;;
1436;SDS011;712;51.026;13.792;2023-02-26T07:07:05;7.00;;;1.97;;
1436;SDS011;712;51.026;13.792;2023-02-26T07:09:30;8.00;;;2.00;;
1436;SDS011;712;51.026;13.792;2023-02-26T07:11:55;6.15;;;1.65;;
1436;SDS011;712;51.026;13.792;2023-02-26T07:14:20;6.30;;;2.10;;
1436;SDS011;712;51.026;13.792;2023-02-26T07:16:45;5.43;;;1.80;;
1436;SDS011;712;51.026;13.792;2023-02-26T07:19:10;5.35;;;1.63;;
1436;SDS011;712;51.026;13.792;2023-02-26T07:21:36;7.10;;;1.80;;
1436;SDS011;712;51.026;13.792;2023-02-26T07:24:01;6.43;;;1.83;;
1436;SDS011;712;51.026;13.792;2023-02-26T07:26:26;5.45;;;1.38;;
1436;SDS011;712;51.026;13.792;2023-02-26T07:28:51;6.23;;;1.60;;
1436;SDS011;712;51.026;13.792;2023-02-26T07:31:16;7.57;;;2.00;;
1436;SDS011;712;51.026;13.792;2023-02-26T07:33:42;5.57;;;1.80;;
1436;SDS011;712;51.026;13.792;2023-02-26T07:36:07;6.53;;;1.90;;
1436;SDS011;712;51.026;13.792;2023-02-26T07:38:32;6.27;;;2.00;;
1436;SDS011;712;51.026;13.792;2023-02-26T07:40:57;7.00;;;1.87;;
1436;SDS011;712;51.026;13.792;2023-02-26T07:43:23;6.00;;;1.90;;
1436;SDS011;712;51.026;13.792;2023-02-26T07:45:49;5.47;;;1.90;;
1436;SDS011;712;51.026;13.792;2023-02-26T07:48:14;6.20;;;2.00;;
1436;SDS011;712;51.026;13.792;2023-02-26T07:50:39;6.23;;;1.93;;
1436;SDS011;712;51.026;13.792;2023-02-26T07:53:05;5.75;;;1.85;;
1436;SDS011;712;51.026;13.792;2023-02-26T07:55:30;4.63;;;1.70;;
1436;SDS011;712;51.026;13.792;2023-02-26T07:57:55;5.53;;;1.80;;
1436;SDS011;712;51.026;13.792;2023-02-26T08:00:20;5.85;;;1.73;;
1436;SDS011;712;51.026;13.792;2023-02-26T08:02:45;5.60;;;1.80;;
1436;SDS011;712;51.026;13.792;2023-02-26T08:05:11;7.25;;;1.73;;
1436;SDS011;712;51.026;13.792;2023-02-26T08:07:36;4.87;;;1.60;;
1436;SDS011;712;51.026;13.792;2023-02-26T08:10:02;4.03;;;1.48;;
1436;SDS011;712;51.026;13.792;2023-02-26T08:12:27;5.87;;;1.63;;
1436;SDS011;712;51.026;13.792;2023-02-26T08:14:52;5.97;;;1.70;;
1436;SDS011;712;51.026;13.792;2023-02-26T08:17:17;6.05;;;1.70;;
1436;SDS011;712;51.026;13.792;2023-02-26T08:19:42;4.80;;;1.80;;
1436;SDS011;712;51.026;13.792;2023-02-26T08:22:07;5.97;;;2.33;;
1436;SDS011;712;51.026;13.792;2023-02-26T08:24:33;5.73;;;1.70;;
1436;SDS011;712;51.026;13.792;2023-02-26T08:26:58;5.43;;;1.33;;
1436;SDS011;712;51.026;13.792;2023-02-26T08:29:23;6.43;;;1.63;;
1436;SDS011;712;51.026;13.792;2023-02-26T08:31:49;4.78;;;1.65;;
1436;SDS011;712;51.026;13.792;2023-02-26T08:34:14;7.93;;;1.77;;
1436;SDS011;712;51.026;13.792;2023-02-26T08:36:39;5.63;;;1.50;;
1436;SDS011;712;51.026;13.792;2023-02-26T08:39:04;6.13;;;1.88;;
1436;SDS011;712;51.026;13.792;2023-02-26T08:41:30;5.97;;;1.85;;
1436;SDS011;712;51.026;13.792;2023-02-26T08:43:57;8.35;;;1.75;;
1436;SDS011;712;51.026;13.792;2023-02-26T08:46:22;6.35;;;2.10;;
1436;SDS011;712;51.026;13.792;2023-02-26T08:48:47;4.57;;;1.60;;
1436;SDS011;712;51.026;13.792;2023-02-26T08:51:12;6.32;;;1.80;;
1436;SDS011;712;51.026;13.792;2023-02-26T08:53:37;7.30;;;1.80;;
1436;SDS011;712;51.026;13.792;2023-02-26T08:56:04;5.47;;;1.75;;
1436;SDS011;712;51.026;13.792;2023-02-26T08:58:29;5.33;;;1.40;;
1436;SDS011;712;51.026;13.792;2023-02-26T09:00:54;6.27;;;1.77;;
1436;SDS011;712;51.026;13.792;2023-02-26T09:03:19;6.30;;;1.30;;
1436;SDS011;712;51.026;13.792;2023-02-26T09:05:44;4.13;;;1.50;;
1436;SDS011;712;51.026;13.792;2023-02-26T09:08:10;5.55;;;1.50;;
1436;SDS011;712;51.026;13.792;2023-02-26T09:10:37;6.22;;;1.40;;
1436;SDS011;712;51.026;13.792;2023-02-26T09:13:02;4.17;;;1.40;;
1436;SDS011;712;51.026;13.792;2023-02-26T09:15:27;5.07;;;1.40;;
1436;SDS011;712;51.026;13.792;2023-02-26T09:17:52;4.10;;;1.60;;
1436;SDS011;712;51.026;13.792;2023-02-26T09:20:18;5.70;;;1.60;;
1436;SDS011;712;51.026;13.792;2023-02-26T09:22:43;5.07;;;1.30;;
1436;SDS011;712;51.026;13.792;2023-02-26T09:25:08;4.07;;;1.30;;
1436;SDS011;712;51.026;13.792;2023-02-26T09:27:33;4.75;;;1.58;;
1436;SDS011;712;51.026;13.792;2023-02-26T09:30:00;5.60;;;1.23;;
1436;SDS011;712;51.026;13.792;2023-02-26T09:32:25;6.10;;;1.30;;
1436;SDS011;712;51.026;13.792;2023-02-26T09:34:50;5.07;;;1.35;;
1436;SDS011;712;51.026;13.792;2023-02-26T09:37:15;4.95;;;1.20;;
1436;SDS011;712;51.026;13.792;2023-02-26T09:39:41;5.25;;;1.30;;
1436;SDS011;712;51.026;13.792;2023-02-26T09:42:10;6.80;;;1.35;;
1436;SDS011;712;51.026;13.792;2023-02-26T09:44:41;6.82;;;1.35;;
1436;SDS011;712;51.026;13.792;2023-02-26T09:47:09;4.00;;;0.87;;
1436;SDS011;712;51.026;13.792;2023-02-26T09:49:55;4.28;;;0.90;;
1436;SDS011;712;51.026;13.792;2023-02-26T09:54:48;4.50;;;1.20;;
1436;SDS011;712;51.026;13.792;2023-02-26T09:57:23;4.00;;;1.10;;
1436;SDS011;712;51.026;13.792;2023-02-26T09:59:50;5.47;;;1.20;;
1436;SDS011;712;51.026;13.792;2023-02-26T10:02:20;3.63;;;0.90;;
1436;SDS011;712;51.026;13.792;2023-02-26T10:04:56;6.30;;;1.00;;
1436;SDS011;712;51.026;13.792;2023-02-26T10:10:31;6.25;;;1.20;;
1436;SDS011;712;51.026;13.792;2023-02-26T10:12:57;3.03;;;0.82;;
1436;SDS011;712;51.026;13.792;2023-02-26T10:15:32;4.60;;;1.20;;
1436;SDS011;712;51.026;13.792;2023-02-26T10:18:20;5.07;;;0.90;;
1436;SDS011;712;51.026;13.792;2023-02-26T10:20:55;3.22;;;1.00;;
1436;SDS011;712;51.026;13.792;2023-02-26T10:23:35;3.90;;;1.00;;
1436;SDS011;712;51.026;13.792;2023-02-26T10:26:11;2.88;;;0.90;;
1436;SDS011;712;51.026;13.792;2023-02-26T10:33:46;3.85;;;0.90;;
1436;SDS011;712;51.026;13.792;2023-02-26T10:36:24;5.07;;;1.00;;
1436;SDS011;712;51.026;13.792;2023-02-26T10:38:51;5.63;;;0.82;;
1436;SDS011;712;51.026;13.792;2023-02-26T10:41:19;2.95;;;0.88;;
1436;SDS011;712;51.026;13.792;2023-02-26T10:43:48;4.38;;;1.05;;
1436;SDS011;712;51.026;13.792;2023-02-26T10:51:14;5.15;;;1.10;;
1436;SDS011;712;51.026;13.792;2023-02-26T10:53:40;3.65;;;0.60;;
1436;SDS011;712;51.026;13.792;2023-02-26T10:56:26;4.20;;;0.80;;
1436;SDS011;712;51.026;13.792;2023-02-26T10:58:52;3.17;;;0.68;;
1436;SDS011;712;51.026;13.792;2023-02-26T11:01:19;2.70;;;0.70;;
1436;SDS011;712;51.026;13.792;2023-02-26T11:03:45;4.57;;;0.75;;
1436;SDS011;712;51.026;13.792;2023-02-26T11:06:14;2.60;;;0.77;;
1436;SDS011;712;51.026;13.792;2023-02-26T11:08:42;2.58;;;0.80;;
1436;SDS011;712;51.026;13.792;2023-02-26T11:11:08;4.05;;;0.90;;
1436;SDS011;712;51.026;13.792;2023-02-26T11:13:34;4.43;;;0.80;;
1436;SDS011;712;51.026;13.792;2023-02-26T11:16:01;3.92;;;0.88;;
1436;SDS011;712;51.026;13.792;2023-02-26T11:18:28;3.85;;;0.80;;
1436;SDS011;712;51.026;13.792;2023-02-26T11:23:19;5.70;;;0.97;;
1436;SDS011;712;51.026;13.792;2023-02-26T11:25:45;5.38;;;0.70;;
1436;SDS011;712;51.026;13.792;2023-02-26T11:30:41;3.45;;;0.80;;
1436;SDS011;712;51.026;13.792;2023-02-26T11:35:39;3.60;;;1.02;;
1436;SDS011;712;51.026;13.792;2023-02-26T11:38:04;5.50;;;1.10;;
1436;SDS011;712;51.026;13.792;2023-02-26T11:40:36;6.18;;;1.23;;
1436;SDS011;712;51.026;13.792;2023-02-26T11:45:27;2.83;;;0.68;;
1436;SDS011;712;51.026;13.792;2023-02-26T11:47:58;4.43;;;0.97;;
1436;SDS011;712;51.026;13.792;2023-02-26T11:50:23;6.43;;;0.98;;
1436;SDS011;712;51.026;13.792;2023-02-26T11:52:56;4.53;;;0.80;;
1436;SDS011;712;51.026;13.792;2023-02-26T11:55:28;3.58;;;0.63;;
1436;SDS011;712;51.026;13.792;2023-02-26T11:57:55;3.25;;;0.70;;
1436;SDS011;712;51.026;13.792;2023-02-26T12:00:36;3.30;;;0.63;;
1436;SDS011;712;51.026;13.792;2023-02-26T12:03:05;3.25;;;0.80;;
1436;SDS011;712;51.026;13.792;2023-02-26T12:05:32;4.75;;;0.70;;
1436;SDS011;712;51.026;13.792;2023-02-26T12:07:57;3.03;;;0.80;;
1436;SDS011;712;51.026;13.792;2023-02-26T12:10:31;3.65;;;0.75;;
1436;SDS011;712;51.026;13.792;2023-02-26T12:15:38;2.95;;;0.60;;
1436;SDS011;712;51.026;13.792;2023-02-26T12:21:28;2.65;;;0.70;;
1436;SDS011;712;51.026;13.792;2023-02-26T12:24:09;6.32;;;0.70;;
1436;SDS011;712;51.026;13.792;2023-02-26T12:26:39;2.65;;;0.63;;
1436;SDS011;712;51.026;13.792;2023-02-26T12:29:22;7.10;;;0.98;;
1436;SDS011;712;51.026;13.792;2023-02-26T12:31:54;3.42;;;0.60;;
1436;SDS011;712;51.026;13.792;2023-02-26T12:44:54;4.60;;;0.70;;
1436;SDS011;712;51.026;13.792;2023-02-26T12:50:17;3.10;;;0.63;;
1436;SDS011;712;51.026;13.792;2023-02-26T12:52:49;2.17;;;0.52;;
1436;SDS011;712;51.026;13.792;2023-02-26T12:55:19;4.78;;;0.65;;
1436;SDS011;712;51.026;13.792;2023-02-26T13:03:20;3.15;;;0.70;;
1436;SDS011;712;51.026;13.792;2023-02-26T13:06:10;2.33;;;0.63;;
1436;SDS011;712;51.026;13.792;2023-02-26T13:08:42;2.60;;;0.57;;
1436;SDS011;712;51.026;13.792;2023-02-26T13:13:45;4.82;;;0.70;;
1436;SDS011;712;51.026;13.792;2023-02-26T13:16:30;12.60;;;1.42;;
1436;SDS011;712;51.026;13.792;2023-02-26T13:21:34;5.00;;;0.88;;
1436;SDS011;712;51.026;13.792;2023-02-26T13:24:43;6.25;;;0.70;;
1436;SDS011;712;51.026;13.792;2023-02-26T13:26:49;3.22;;;0.70;;
1436;SDS011;712;51.026;13.792;2023-02-26T13:29:17;2.60;;;0.55;;
1436;SDS011;712;51.026;13.792;2023-02-26T13:31:54;4.50;;;0.73;;
1436;SDS011;712;51.026;13.792;2023-02-26T13:36:51;1.98;;;0.45;;
1436;SDS011;712;51.026;13.792;2023-02-26T13:39:26;3.60;;;0.73;;
1436;SDS011;712;51.026;13.792;2023-02-26T13:42:11;4.85;;;0.98;;
1436;SDS011;712;51.026;13.792;2023-02-26T13:44:41;4.75;;;0.70;;
1436;SDS011;712;51.026;13.792;2023-02-26T13:52:29;4.03;;;0.77;;
1436;SDS011;712;51.026;13.792;2023-02-26T13:54:55;4.13;;;0.93;;
1436;SDS011;712;51.026;13.792;2023-02-26T13:57:24;2.58;;;0.60;;
1436;SDS011;712;51.026;13.792;2023-02-26T14:00:02;3.28;;;0.60;;
1436;SDS011;712;51.026;13.792;2023-02-26T14:02:42;2.30;;;0.57;;
1436;SDS011;712;51.026;13.792;2023-02-26T14:07:52;3.00;;;0.55;;
1436;SDS011;712;51.026;13.792;2023-02-26T14:13:01;3.30;;;0.82;;
1436;SDS011;712;51.026;13.792;2023-02-26T14:15:27;1.58;;;0.60;;
1436;SDS011;712;51.026;13.792;2023-02-26T14:18:00;4.72;;;0.80;;
1436;SDS011;712;51.026;13.792;2023-02-26T14:20:27;3.25;;;0.70;;
1436;SDS011;712;51.026;13.792;2023-02-26T14:22:58;4.30;;;0.88;;
1436;SDS011;712;51.026;13.792;2023-02-26T14:25:47;2.53;;;0.80;;
1436;SDS011;712;51.026;13.792;2023-02-26T14:30:38;3.25;;;0.82;;
1436;SDS011;712;51.026;13.792;2023-02-26T14:33:07;2.97;;;0.80;;
1436;SDS011;712;51.026;13.792;2023-02-26T14:35:35;2.33;;;0.60;;
1436;SDS011;712;51.026;13.792;2023-02-26T14:40:46;3.05;;;0.70;;
1436;SDS011;712;51.026;13.792;2023-02-26T14:43:15;4.00;;;0.90;;
1436;SDS011;712;51.026;13.792;2023-02-26T14:45:42;3.42;;;0.82;;
1436;SDS011;712;51.026;13.792;2023-02-26T14:48:12;3.88;;;0.90;;
1436;SDS011;712;51.026;13.792;2023-02-26T14:58:24;4.22;;;0.85;;
1436;SDS011;712;51.026;13.792;2023-02-26T15:03:33;4.60;;;0.93;;
1436;SDS011;712;51.026;13.792;2023-02-26T15:06:08;3.53;;;0.70;;
1436;SDS011;712;51.026;13.792;2023-02-26T15:08:41;2.78;;;0.82;;
1436;SDS011;712;51.026;13.792;2023-02-26T15:11:23;3.65;;;0.90;;
1436;SDS011;712;51.026;13.792;2023-02-26T15:19:32;3.78;;;1.00;;
1436;SDS011;712;51.026;13.792;2023-02-26T15:22:17;5.05;;;0.80;;
1436;SDS011;712;51.026;13.792;2023-02-26T15:24:46;2.58;;;0.70;;
1436;SDS011;712;51.026;13.792;2023-02-26T15:27:12;2.07;;;0.60;;
1436;SDS011;712;51.026;13.792;2023-02-26T15:29:39;2.45;;;0.80;;
1436;SDS011;712;51.026;13.792;2023-02-26T15:32:21;3.38;;;0.70;;
1436;SDS011;712;51.026;13.792;2023-02-26T15:34:47;3.05;;;0.70;;
1436;SDS011;712;51.026;13.792;2023-02-26T15:37:19;2.58;;;0.75;;
1436;SDS011;712;51.026;13.792;2023-02-26T15:39:47;4.40;;;0.80;;
1436;SDS011;712;51.026;13.792;2023-02-26T15:42:12;4.80;;;1.00;;
1436;SDS011;712;51.026;13.792;2023-02-26T15:44:37;3.10;;;0.80;;
1436;SDS011;712;51.026;13.792;2023-02-26T15:47:02;3.43;;;0.80;;
1436;SDS011;712;51.026;13.792;2023-02-26T15:49:29;4.93;;;0.88;;
1436;SDS011;712;51.026;13.792;2023-02-26T15:51:57;6.63;;;1.20;;
1436;SDS011;712;51.026;13.792;2023-02-26T15:54:23;5.32;;;1.33;;
1436;SDS011;712;51.026;13.792;2023-02-26T15:56:48;4.05;;;1.17;;
1436;SDS011;712;51.026;13.792;2023-02-26T15:59:18;3.63;;;0.90;;
1436;SDS011;712;51.026;13.792;2023-02-26T16:01:44;2.67;;;0.80;;
1436;SDS011;712;51.026;13.792;2023-02-26T16:04:13;4.95;;;1.27;;
1436;SDS011;712;51.026;13.792;2023-02-26T16:06:40;3.53;;;0.85;;
1436;SDS011;712;51.026;13.792;2023-02-26T16:09:07;6.70;;;1.00;;
1436;SDS011;712;51.026;13.792;2023-02-26T16:11:34;5.20;;;1.40;;
1436;SDS011;712;51.026;13.792;2023-02-26T16:14:00;6.15;;;1.70;;
1436;SDS011;712;51.026;13.792;2023-02-26T16:16:27;6.25;;;1.80;;
1436;SDS011;712;51.026;13.792;2023-02-26T16:18:53;7.53;;;2.47;;
1436;SDS011;712;51.026;13.792;2023-02-26T16:21:21;2.60;;;0.60;;
1436;SDS011;712;51.026;13.792;2023-02-26T16:23:48;5.93;;;1.00;;
1436;SDS011;712;51.026;13.792;2023-02-26T16:26:21;1.83;;;0.63;;
1436;SDS011;712;51.026;13.792;2023-02-26T16:28:47;4.38;;;0.98;;
1436;SDS011;712;51.026;13.792;2023-02-26T16:31:15;4.10;;;1.00;;
1436;SDS011;712;51.026;13.792;2023-02-26T16:33:41;5.10;;;0.90;;
1436;SDS011;712;51.026;13.792;2023-02-26T16:36:14;3.95;;;1.08;;
1436;SDS011;712;51.026;13.792;2023-02-26T16:38:48;4.00;;;0.90;;
1436;SDS011;712;51.026;13.792;2023-02-26T16:41:14;3.50;;;0.90;;
1436;SDS011;712;51.026;13.792;2023-02-26T16:43:47;4.03;;;0.80;;
1436;SDS011;712;51.026;13.792;2023-02-26T16:46:19;4.00;;;0.93;;
1436;SDS011;712;51.026;13.792;2023-02-26T16:48:48;5.20;;;0.93;;
1436;SDS011;712;51.026;13.792;2023-02-26T16:51:15;4.88;;;1.10;;
1436;SDS011;712;51.026;13.792;2023-02-26T16:53:48;4.65;;;1.02;;
1436;SDS011;712;51.026;13.792;2023-02-26T16:56:17;4.53;;;1.20;;
1436;SDS011;712;51.026;13.792;2023-02-26T16:58:44;3.58;;;1.17;;
1436;SDS011;712;51.026;13.792;2023-02-26T17:01:14;4.85;;;1.13;;
1436;SDS011;712;51.026;13.792;2023-02-26T17:03:39;6.32;;;1.50;;
1436;SDS011;712;51.026;13.792;2023-02-26T17:06:08;5.00;;;1.40;;
1436;SDS011;712;51.026;13.792;2023-02-26T17:08:45;5.97;;;1.15;;
1436;SDS011;712;51.026;13.792;2023-02-26T17:11:17;5.28;;;1.40;;
1436;SDS011;712;51.026;13.792;2023-02-26T17:13:42;4.78;;;1.52;;
1436;SDS011;712;51.026;13.792;2023-02-26T17:16:10;4.37;;;1.57;;
1436;SDS011;712;51.026;13.792;2023-02-26T17:18:35;5.78;;;2.10;;
1436;SDS011;712;51.026;13.792;2023-02-26T17:21:00;8.10;;;2.20;;
1436;SDS011;712;51.026;13.792;2023-02-26T17:23:30;6.47;;;2.17;;